createdAt,value
2019-03-09T00:01:23.224Z,7.86
2019-03-09T00:03:53.849Z,8.14
2019-03-09T00:06:22.942Z,8.24
2019-03-09T00:08:53.321Z,8.48
2019-03-09T00:11:24.423Z,8.24
2019-03-09T00:13:56.766Z,8.34
2019-03-09T00:16:25.896Z,8.44
2019-03-09T00:18:56.635Z,8.52
2019-03-09T00:21:26.171Z,8.56
2019-03-09T00:24:17.080Z,8.51
2019-03-09T00:26:59.813Z,0.07
2019-03-09T00:29:49.705Z,8.72
2019-03-09T00:32:22.915Z,9.14
2019-03-09T00:34:55.600Z,9.16
2019-03-09T00:37:24.752Z,8.86
2019-03-09T00:39:55.713Z,8.88
2019-03-09T00:42:24.816Z,8.71
2019-03-09T00:44:54.164Z,9.08
2019-03-09T00:47:30.697Z,8.83
2019-03-09T00:50:02.618Z,8.76
2019-03-09T00:52:31.728Z,8.77
2019-03-09T00:55:03.989Z,8.85
2019-03-09T00:57:36.568Z,8.77
2019-03-09T01:00:13.990Z,8.90
2019-03-09T01:02:43.156Z,8.85
2019-03-09T01:05:12.782Z,9.09
2019-03-09T01:07:43.799Z,8.93
2019-03-09T01:10:17.460Z,8.90
2019-03-09T01:12:46.564Z,8.90
2019-03-09T01:15:20.847Z,8.81
2019-03-09T01:17:51.278Z,9.20
2019-03-09T01:20:23.554Z,8.93
2019-03-09T01:22:55.510Z,9.11
2019-03-09T01:25:24.709Z,8.92
2019-03-09T01:27:53.892Z,9.01
2019-03-09T01:30:22.989Z,8.86
2019-03-09T01:32:53.855Z,9.11
2019-03-09T01:35:23.047Z,9.17
2019-03-09T01:37:52.142Z,9.11
2019-03-09T01:40:22.391Z,8.78
2019-03-09T01:42:52.486Z,8.86
2019-03-09T01:45:21.665Z,8.90
2019-03-09T01:47:50.772Z,9.17
2019-03-09T01:50:22.297Z,9.10
2019-03-09T01:52:51.505Z,8.90
2019-03-09T01:55:20.804Z,9.06
2019-03-09T01:57:49.935Z,9.49
2019-03-09T02:00:19.727Z,9.36
2019-03-09T02:02:50.558Z,9.14
2019-03-09T02:05:20.694Z,9.17
2019-03-09T02:07:49.808Z,9.40
2019-03-09T02:10:20.884Z,9.21
2019-03-09T02:12:49.983Z,9.36
2019-03-09T02:15:19.121Z,9.18
2019-03-09T02:17:48.247Z,8.87
2019-03-09T02:20:18.820Z,8.78
2019-03-09T02:22:47.958Z,9.07
2019-03-09T02:25:25.227Z,8.76
2019-03-09T02:27:56.056Z,8.87
2019-03-09T02:30:32.822Z,9.21
2019-03-09T02:33:01.912Z,9.31
2019-03-09T02:35:31.029Z,9.00
2019-03-09T02:38:10.299Z,9.04
2019-03-09T02:40:39.728Z,9.05
2019-03-09T02:43:11.899Z,8.86
2019-03-09T02:45:42.039Z,8.73
2019-03-09T02:48:12.253Z,8.68
2019-03-09T02:50:55.684Z,8.97
2019-03-09T02:53:26.513Z,8.96
2019-03-09T02:55:56.432Z,8.83
2019-03-09T02:58:25.525Z,9.13
2019-03-09T03:01:12.654Z,9.12
2019-03-09T03:03:44.550Z,8.81
2019-03-09T03:06:14.028Z,8.76
2019-03-09T03:08:48.973Z,8.81
2019-03-09T03:11:20.371Z,8.87
2019-03-09T03:13:49.496Z,8.95
2019-03-09T03:16:18.613Z,8.99
2019-03-09T03:18:49.546Z,8.91
2019-03-09T03:21:18.689Z,8.99
2019-03-09T03:23:47.802Z,8.89
2019-03-09T03:26:18.245Z,8.87
2019-03-09T03:28:47.295Z,8.78
2019-03-09T03:31:18.942Z,8.81
2019-03-09T03:33:48.068Z,9.05
2019-03-09T03:36:18.226Z,9.10
2019-03-09T03:38:47.325Z,8.73
2019-03-09T03:41:16.403Z,8.89
2019-03-09T03:43:47.973Z,8.85
2019-03-09T03:46:17.176Z,8.80
2019-03-09T03:48:46.670Z,8.89
2019-03-09T03:51:17.168Z,3.72
2019-03-09T03:53:49.199Z,8.96
2019-03-09T03:56:23.473Z,8.73
2019-03-09T03:58:55.109Z,8.66
2019-03-09T04:01:26.723Z,8.67
2019-03-09T04:03:56.066Z,8.70
2019-03-09T04:06:28.300Z,8.73
2019-03-09T04:08:57.857Z,8.70
2019-03-09T04:11:26.952Z,8.59
2019-03-09T04:13:56.209Z,8.63
2019-03-09T04:16:26.541Z,8.55
2019-03-09T04:18:57.417Z,8.68
2019-03-09T04:21:28.314Z,8.73
2019-03-09T04:23:57.421Z,8.56
2019-03-09T04:26:29.520Z,8.56
2019-03-09T04:28:58.575Z,8.68
2019-03-09T04:31:32.350Z,8.65
2019-03-09T04:34:02.921Z,8.62
2019-03-09T04:36:35.674Z,8.45
2019-03-09T04:39:05.794Z,8.41
2019-03-09T04:41:36.665Z,8.36
2019-03-09T04:44:05.756Z,8.53
2019-03-09T04:46:36.253Z,8.52
2019-03-09T04:49:10.499Z,8.41
2019-03-09T04:51:39.685Z,8.47
2019-03-09T04:54:08.986Z,8.26
2019-03-09T04:56:39.781Z,8.40
2019-03-09T04:59:09.125Z,8.10
2019-03-09T05:01:39.569Z,8.14
2019-03-09T05:04:40.920Z,8.00
2019-03-09T05:07:20.688Z,7.97
2019-03-09T05:10:00.384Z,7.87
2019-03-09T05:12:31.118Z,7.87
2019-03-09T05:15:05.210Z,7.81
2019-03-09T05:17:34.467Z,7.72
2019-03-09T05:20:03.582Z,7.73
2019-03-09T05:22:32.676Z,7.78
2019-03-09T05:25:02.074Z,7.73
2019-03-09T05:27:31.181Z,7.57
2019-03-09T05:30:02.027Z,7.54
2019-03-09T05:32:32.240Z,7.46
2019-03-09T05:35:01.354Z,7.39
2019-03-09T05:37:42.660Z,7.35
2019-03-09T05:40:09.380Z,7.34
2019-03-09T05:43:04.950Z,7.27
2019-03-09T05:45:34.618Z,7.13
2019-03-09T05:48:06.221Z,7.19
2019-03-09T05:50:38.480Z,7.18
2019-03-09T05:53:11.387Z,7.17
2019-03-09T05:55:40.470Z,7.11
2019-03-09T05:58:10.848Z,7.06
2019-03-09T06:00:44.006Z,7.08
2019-03-09T06:03:13.100Z,7.27
2019-03-09T06:05:51.013Z,7.13
2019-03-09T06:08:24.731Z,7.15
2019-03-09T06:10:53.841Z,7.18
2019-03-09T06:13:22.928Z,6.96
2019-03-09T06:15:53.818Z,7.11
2019-03-09T06:18:22.962Z,7.09
2019-03-09T06:20:53.538Z,7.20
2019-03-09T06:23:25.119Z,7.21
2019-03-09T06:25:54.237Z,7.20
2019-03-09T06:28:24.566Z,7.29
2019-03-09T06:30:58.785Z,7.16
2019-03-09T06:33:29.797Z,7.23
2019-03-09T06:36:42.910Z,7.28
2019-03-09T06:39:32.582Z,7.22
2019-03-09T06:42:31.396Z,7.41
2019-03-09T06:45:00.551Z,7.26
2019-03-09T06:47:29.671Z,-1.57
2019-03-09T06:49:58.796Z,7.28
2019-03-09T06:52:31.685Z,7.29
2019-03-09T06:55:00.830Z,7.46
2019-03-09T06:57:29.936Z,7.44
2019-03-09T06:59:59.433Z,7.41
2019-03-09T07:02:30.294Z,7.44
2019-03-09T07:05:00.396Z,7.42
2019-03-09T07:07:34.736Z,7.55
2019-03-09T07:10:08.053Z,7.59
2019-03-09T07:12:37.261Z,7.80
2019-03-09T07:15:27.853Z,7.76
2019-03-09T07:18:05.279Z,7.70
2019-03-09T07:20:37.390Z,7.84
2019-03-09T07:23:10.240Z,7.85
2019-03-09T07:25:39.329Z,7.96
2019-03-09T07:28:13.555Z,7.89
2019-03-09T07:30:50.084Z,8.04
2019-03-09T07:33:21.470Z,8.20
2019-03-09T07:35:52.288Z,8.26
2019-03-09T07:38:24.180Z,8.28
2019-03-09T07:40:54.958Z,8.50
2019-03-09T07:43:24.091Z,8.33
2019-03-09T07:45:54.919Z,8.55
2019-03-09T07:48:24.472Z,8.82
2019-03-09T07:50:53.654Z,8.78
2019-03-09T07:53:22.761Z,8.86
2019-03-09T07:55:53.734Z,9.02
2019-03-09T07:58:24.798Z,9.04
2019-03-09T08:00:53.947Z,8.92
2019-03-09T08:03:27.514Z,9.08
2019-03-09T08:05:56.902Z,9.15
2019-03-09T08:08:26.600Z,9.17
2019-03-09T08:10:55.711Z,9.18
2019-03-09T08:13:26.419Z,9.22
2019-03-09T08:15:55.566Z,9.17
2019-03-09T08:18:32.763Z,9.18
2019-03-09T08:21:01.917Z,9.22
2019-03-09T08:23:31.016Z,9.41
2019-03-09T08:26:00.096Z,9.39
2019-03-09T08:28:29.315Z,9.65
2019-03-09T08:31:02.164Z,10.11
2019-03-09T08:33:37.987Z,9.84
2019-03-09T08:36:09.793Z,9.70
2019-03-09T08:38:40.893Z,9.82
2019-03-09T08:41:11.695Z,10.06
2019-03-09T08:43:40.971Z,10.63
2019-03-09T08:46:13.859Z,10.11
2019-03-09T08:48:42.927Z,10.11
2019-03-09T08:51:13.380Z,10.16
2019-03-09T08:53:42.636Z,10.08
2019-03-09T08:56:11.799Z,9.82
2019-03-09T08:58:41.060Z,10.13
2019-03-09T09:01:11.131Z,10.48
2019-03-09T09:03:41.726Z,10.05
2019-03-09T09:06:13.919Z,10.10
2019-03-09T09:08:43.620Z,10.22
2019-03-09T09:11:16.047Z,10.14
2019-03-09T09:13:45.200Z,10.24
2019-03-09T09:16:14.395Z,10.33
2019-03-09T09:18:43.762Z,10.40
2019-03-09T09:21:12.875Z,10.27
2019-03-09T09:23:42.005Z,10.56
2019-03-09T09:26:11.395Z,10.32
2019-03-09T09:28:40.564Z,10.28
2019-03-09T09:31:09.643Z,10.14
2019-03-09T09:33:38.751Z,10.25
2019-03-09T09:36:07.862Z,10.21
2019-03-09T09:38:39.317Z,10.11
2019-03-09T09:41:07.878Z,10.16
2019-03-09T09:43:36.988Z,10.21
2019-03-09T09:46:06.373Z,10.40
2019-03-09T09:48:37.317Z,10.50
2019-03-09T09:51:06.410Z,10.46
2019-03-09T09:53:37.126Z,10.61
2019-03-09T09:56:08.274Z,10.46
2019-03-09T09:58:37.495Z,10.35
2019-03-09T10:01:10.158Z,10.29
2019-03-09T10:03:40.716Z,10.12
2019-03-09T10:06:09.917Z,10.41
2019-03-09T10:08:39.601Z,10.72
2019-03-09T10:11:08.712Z,10.78
2019-03-09T10:13:39.147Z,10.20
2019-03-09T10:16:08.193Z,10.60
2019-03-09T10:18:39.999Z,10.56
2019-03-09T10:21:09.120Z,10.44
2019-03-09T10:23:38.212Z,10.60
2019-03-09T10:26:09.773Z,10.43
2019-03-09T10:28:39.143Z,10.37
2019-03-09T10:31:08.565Z,10.57
2019-03-09T10:33:38.093Z,10.80
2019-03-09T10:36:07.213Z,10.97
2019-03-09T10:38:36.347Z,11.00
2019-03-09T10:41:05.423Z,10.74
2019-03-09T10:43:35.068Z,10.83
2019-03-09T10:46:07.386Z,10.79
2019-03-09T10:48:40.024Z,10.83
2019-03-09T10:51:09.125Z,1.89
2019-03-09T10:53:38.237Z,10.78
2019-03-09T10:56:09.787Z,10.83
2019-03-09T10:58:38.889Z,10.93
2019-03-09T11:01:08.212Z,10.97
2019-03-09T11:03:37.344Z,10.76
2019-03-09T11:06:06.506Z,10.74
2019-03-09T11:08:38.777Z,10.83
2019-03-09T11:11:14.189Z,10.81
2019-03-09T11:13:51.839Z,10.93
2019-03-09T11:16:16.990Z,10.89
2019-03-09T11:18:46.303Z,11.02
2019-03-09T11:21:15.413Z,11.13
2019-03-09T11:23:44.549Z,10.74
2019-03-09T11:26:15.711Z,10.84
2019-03-09T11:28:44.767Z,10.99
2019-03-09T11:31:14.256Z,11.05
2019-03-09T11:33:43.463Z,10.67
2019-03-09T11:36:17.121Z,10.72
2019-03-09T11:38:54.665Z,10.76
2019-03-09T11:41:30.764Z,10.74
2019-03-09T11:44:05.786Z,10.71
2019-03-09T11:46:37.181Z,10.89
2019-03-09T11:49:06.080Z,10.93
2019-03-09T11:51:36.614Z,10.76
2019-03-09T11:54:07.181Z,10.82
2019-03-09T11:56:36.315Z,10.86
2019-03-09T11:59:05.386Z,10.51
2019-03-09T12:01:36.500Z,10.56
2019-03-09T12:04:05.445Z,10.58
2019-03-09T12:06:36.121Z,10.57
2019-03-09T12:09:06.872Z,10.89
2019-03-09T12:11:37.684Z,10.81
2019-03-09T12:14:08.639Z,10.97
2019-03-09T12:16:37.750Z,10.97
2019-03-09T12:19:08.142Z,11.23
2019-03-09T12:21:37.609Z,11.03
2019-03-09T12:24:16.077Z,11.19
2019-03-09T12:26:38.011Z,11.11
2019-03-09T12:29:07.101Z,11.42
2019-03-09T12:31:36.198Z,11.23
2019-03-09T12:34:09.376Z,11.08
2019-03-09T12:36:36.560Z,11.18
2019-03-09T12:39:07.262Z,10.91
2019-03-09T12:41:36.361Z,11.04
2019-03-09T12:44:05.744Z,11.07
2019-03-09T12:46:34.990Z,11.23
2019-03-09T12:49:06.534Z,11.95
2019-03-09T12:51:40.987Z,11.71
2019-03-09T12:54:10.064Z,11.59
2019-03-09T12:56:39.175Z,11.74
2019-03-09T12:59:10.787Z,11.77
2019-03-09T13:01:39.913Z,11.27
2019-03-09T13:04:12.387Z,11.49
2019-03-09T13:06:43.981Z,11.40
2019-03-09T13:09:13.200Z,11.47
2019-03-09T13:11:43.674Z,11.98
2019-03-09T13:14:15.014Z,11.69
2019-03-09T13:16:49.396Z,11.76
2019-03-09T13:19:19.103Z,11.63
2019-03-09T13:21:53.267Z,11.53
2019-03-09T13:24:27.310Z,11.37
2019-03-09T13:26:57.308Z,11.11
2019-03-09T13:29:26.640Z,11.12
2019-03-09T13:31:55.771Z,1.53
2019-03-09T13:34:28.206Z,10.90
2019-03-09T13:37:04.128Z,11.22
2019-03-09T13:39:34.087Z,11.29
2019-03-09T13:42:12.675Z,11.48
2019-03-09T13:44:44.834Z,11.42
2019-03-09T13:47:14.482Z,11.35
2019-03-09T13:49:45.374Z,11.15
2019-03-09T13:52:16.021Z,11.10
2019-03-09T13:54:45.167Z,11.11
2019-03-09T13:57:14.264Z,1.95
2019-03-09T13:59:44.515Z,11.20
2019-03-09T14:02:13.559Z,11.27
2019-03-09T14:04:45.110Z,10.92
2019-03-09T14:07:18.905Z,10.66
2019-03-09T14:09:47.986Z,10.65
2019-03-09T14:12:21.166Z,10.72
2019-03-09T14:14:53.879Z,10.69
2019-03-09T14:17:22.940Z,10.79
2019-03-09T14:19:52.236Z,10.63
2019-03-09T14:22:23.828Z,10.60
2019-03-09T14:24:53.354Z,10.54
2019-03-09T14:27:25.192Z,10.59
2019-03-09T14:29:54.399Z,10.34
2019-03-09T14:32:26.110Z,10.31
2019-03-09T14:34:55.226Z,10.25
2019-03-09T14:37:25.122Z,10.37
2019-03-09T14:39:54.263Z,10.52
2019-03-09T14:42:23.754Z,10.25
2019-03-09T14:44:53.313Z,10.24
2019-03-09T14:47:22.477Z,10.49
2019-03-09T14:49:51.574Z,10.59
2019-03-09T14:52:21.564Z,10.63
2019-03-09T14:54:52.036Z,10.54
2019-03-09T14:57:27.213Z,10.54
2019-03-09T14:59:59.483Z,10.41
2019-03-09T15:02:30.345Z,10.55
2019-03-09T15:05:01.173Z,10.71
2019-03-09T15:07:31.852Z,10.49
2019-03-09T15:10:01.043Z,10.39
2019-03-09T15:12:30.568Z,10.32
2019-03-09T15:15:03.106Z,10.75
2019-03-09T15:17:32.149Z,10.71
2019-03-09T15:20:01.750Z,10.44
2019-03-09T15:22:39.253Z,10.56
2019-03-09T15:25:09.453Z,10.67
2019-03-09T15:27:38.659Z,10.47
2019-03-09T15:30:09.340Z,10.60
2019-03-09T15:32:40.486Z,10.55
2019-03-09T15:35:10.631Z,10.51
2019-03-09T15:37:39.735Z,10.45
2019-03-09T15:40:10.524Z,1.04
2019-03-09T15:42:39.826Z,10.76
2019-03-09T15:45:09.964Z,10.56
2019-03-09T15:47:44.917Z,10.70
2019-03-09T15:50:15.935Z,10.69
2019-03-09T15:52:45.099Z,10.48
2019-03-09T15:55:15.799Z,10.80
2019-03-09T15:57:44.914Z,10.89
2019-03-09T16:00:16.485Z,10.85
2019-03-09T16:02:47.187Z,10.83
2019-03-09T16:05:25.344Z,10.85
2019-03-09T16:07:54.563Z,10.99
2019-03-09T16:10:26.157Z,10.86
2019-03-09T16:12:55.330Z,11.02
2019-03-09T16:15:25.980Z,11.08
2019-03-09T16:17:55.161Z,11.13
2019-03-09T16:20:24.499Z,10.85
2019-03-09T16:22:56.854Z,10.88
2019-03-09T16:25:29.019Z,10.96
2019-03-09T16:27:56.991Z,11.21
2019-03-09T16:30:27.892Z,11.20
2019-03-09T16:32:57.035Z,11.14
2019-03-09T16:35:26.359Z,11.09
2019-03-09T16:38:01.143Z,11.14
2019-03-09T16:40:39.867Z,10.94
2019-03-09T16:43:04.072Z,10.99
2019-03-09T16:45:36.499Z,11.17
2019-03-09T16:48:05.531Z,11.06
2019-03-09T16:50:34.693Z,10.97
2019-03-09T16:53:03.706Z,11.15
2019-03-09T16:55:34.320Z,11.07
2019-03-09T16:58:03.955Z,11.02
2019-03-09T17:00:34.557Z,11.01
2019-03-09T17:03:03.798Z,11.16
2019-03-09T17:05:32.898Z,11.08
2019-03-09T17:08:02.004Z,11.03
2019-03-09T17:10:31.188Z,10.98
2019-03-09T17:13:00.279Z,11.13
2019-03-09T17:15:30.609Z,11.21
2019-03-09T17:18:02.219Z,11.22
2019-03-09T17:20:32.402Z,10.95
2019-03-09T17:23:02.860Z,10.91
2019-03-09T17:25:34.356Z,11.13
2019-03-09T17:28:03.447Z,11.02
2019-03-09T17:30:32.550Z,11.08
2019-03-09T17:33:02.827Z,11.01
2019-03-09T17:35:35.376Z,11.05
2019-03-09T17:38:09.024Z,11.00
2019-03-09T17:40:38.133Z,10.89
2019-03-09T17:43:07.463Z,11.02
2019-03-09T17:45:38.751Z,11.03
2019-03-09T17:48:07.959Z,11.08
2019-03-09T17:50:38.352Z,2.25
2019-03-09T17:53:09.292Z,11.01
2019-03-09T17:55:38.703Z,10.97
2019-03-09T17:58:07.852Z,11.20
2019-03-09T18:00:42.759Z,11.01
2019-03-09T18:03:21.265Z,11.15
2019-03-09T18:05:50.646Z,11.01
2019-03-09T18:08:21.337Z,11.02
2019-03-09T18:10:57.864Z,10.95
2019-03-09T18:13:28.965Z,10.97
2019-03-09T18:16:05.587Z,11.06
2019-03-09T18:18:34.705Z,11.22
2019-03-09T18:21:05.356Z,11.29
2019-03-09T18:23:34.482Z,11.29
2019-03-09T18:26:03.876Z,11.35
2019-03-09T18:28:35.811Z,11.39
2019-03-09T18:31:07.744Z,11.35
2019-03-09T18:33:40.020Z,3.45
2019-03-09T18:36:09.119Z,11.61
2019-03-09T18:38:38.220Z,11.71
2019-03-09T18:41:07.406Z,11.43
2019-03-09T18:43:37.552Z,11.46
2019-03-09T18:46:07.733Z,11.50
2019-03-09T18:48:41.415Z,11.75
2019-03-09T18:51:10.495Z,11.55
2019-03-09T18:53:39.602Z,11.63
2019-03-09T18:56:08.790Z,11.54
2019-03-09T18:58:40.123Z,11.50
2019-03-09T19:01:11.732Z,11.31
2019-03-09T19:03:40.850Z,11.48
2019-03-09T19:06:10.022Z,11.38
2019-03-09T19:08:40.542Z,11.40
2019-03-09T19:11:09.655Z,11.55
2019-03-09T19:13:38.809Z,11.53
2019-03-09T19:16:08.054Z,11.48
2019-03-09T19:18:37.218Z,11.49
2019-03-09T19:21:10.943Z,11.83
2019-03-09T19:23:43.279Z,11.36
2019-03-09T19:26:12.393Z,11.22
2019-03-09T19:28:45.687Z,11.42
2019-03-09T19:31:15.309Z,11.49
2019-03-09T19:33:44.450Z,11.24
2019-03-09T19:36:13.580Z,11.17
2019-03-09T19:38:43.037Z,11.24
2019-03-09T19:41:14.751Z,11.31
2019-03-09T19:43:43.843Z,11.47
2019-03-09T19:46:12.980Z,11.29
2019-03-09T19:48:43.391Z,11.41
2019-03-09T19:51:12.591Z,11.40
2019-03-09T19:53:45.076Z,11.47
2019-03-09T19:56:14.173Z,11.28
2019-03-09T19:58:44.973Z,11.27
2019-03-09T20:01:21.010Z,11.25
2019-03-09T20:03:50.281Z,11.43
2019-03-09T20:06:20.247Z,11.43
2019-03-09T20:08:55.385Z,11.36
2019-03-09T20:11:24.475Z,11.54
2019-03-09T20:13:53.580Z,11.41
2019-03-09T20:16:24.406Z,11.37
2019-03-09T20:18:56.424Z,11.42
2019-03-09T20:21:25.848Z,11.29
2019-03-09T20:23:55.774Z,11.18
2019-03-09T20:26:24.928Z,11.30
2019-03-09T20:29:00.135Z,11.57
2019-03-09T20:31:24.889Z,11.31
2019-03-09T20:33:54.061Z,11.68
2019-03-09T20:36:23.148Z,11.52
2019-03-09T20:38:52.335Z,11.44
2019-03-09T20:41:22.613Z,11.52
2019-03-09T20:43:52.557Z,11.38
2019-03-09T20:46:23.691Z,11.51
2019-03-09T20:48:54.686Z,11.67
2019-03-09T20:51:24.905Z,11.70
2019-03-09T20:53:54.547Z,11.51
2019-03-09T20:56:24.646Z,11.69
2019-03-09T20:58:55.490Z,11.67
2019-03-09T21:01:31.147Z,11.42
2019-03-09T21:04:01.229Z,11.50
2019-03-09T21:06:33.195Z,11.57
2019-03-09T21:09:02.412Z,11.78
2019-03-09T21:11:36.333Z,11.71
2019-03-09T21:14:08.051Z,11.61
2019-03-09T21:16:37.150Z,11.86
2019-03-09T21:19:07.666Z,11.59
2019-03-09T21:21:39.043Z,11.79
2019-03-09T21:24:09.789Z,11.74
2019-03-09T21:26:38.981Z,11.82
2019-03-09T21:29:08.253Z,11.56
2019-03-09T21:31:37.829Z,11.43
2019-03-09T21:34:07.261Z,11.68
2019-03-09T21:36:41.341Z,11.54
2019-03-09T21:39:10.579Z,11.64
2019-03-09T21:41:39.658Z,11.58
2019-03-09T21:44:08.794Z,11.51
2019-03-09T21:46:42.056Z,11.73
2019-03-09T21:49:11.193Z,11.67
2019-03-09T21:51:41.396Z,11.40
2019-03-09T21:54:10.509Z,11.36
2019-03-09T21:56:41.859Z,11.30
2019-03-09T21:59:14.112Z,11.39
2019-03-09T22:01:43.202Z,11.38
2019-03-09T22:04:12.461Z,11.57
2019-03-09T22:06:42.701Z,11.52
2019-03-09T22:09:14.537Z,11.41
2019-03-09T22:11:43.761Z,11.07
2019-03-09T22:14:14.301Z,11.43
2019-03-09T22:16:43.529Z,11.19
2019-03-09T22:19:12.660Z,11.27
2019-03-09T22:21:41.792Z,11.04
2019-03-09T22:24:12.142Z,11.18
2019-03-09T22:26:41.304Z,11.23
2019-03-09T22:29:12.148Z,11.31
2019-03-09T22:31:45.790Z,11.20
2019-03-09T22:34:19.719Z,11.09
2019-03-09T22:36:52.006Z,11.09
2019-03-09T22:39:21.132Z,11.34
2019-03-09T22:41:50.655Z,11.42
2019-03-09T22:44:19.726Z,11.52
2019-03-09T22:46:53.680Z,11.45
2019-03-09T22:49:28.752Z,11.22
2019-03-09T22:51:58.966Z,11.25
2019-03-09T22:54:33.263Z,11.29
2019-03-09T22:57:06.947Z,11.58
2019-03-09T22:59:39.603Z,11.28
2019-03-09T23:02:09.377Z,11.27
2019-03-09T23:04:41.825Z,11.23
2019-03-09T23:07:12.275Z,11.32
2019-03-09T23:09:41.338Z,11.39
2019-03-09T23:12:13.927Z,11.65
2019-03-09T23:14:43.382Z,11.29
2019-03-09T23:17:15.491Z,11.29
2019-03-09T23:19:46.192Z,11.31
2019-03-09T23:22:15.274Z,11.26
2019-03-09T23:24:45.600Z,11.27
2019-03-09T23:27:16.298Z,11.35
2019-03-09T23:29:45.389Z,11.25
2019-03-09T23:32:14.487Z,11.35
2019-03-09T23:34:43.560Z,11.50
2019-03-09T23:37:12.686Z,11.49
2019-03-09T23:39:43.102Z,11.45
2019-03-09T23:42:12.201Z,11.24
2019-03-09T23:44:48.644Z,11.10
2019-03-09T23:47:17.796Z,11.40
2019-03-09T23:49:47.597Z,11.55
2019-03-09T23:52:25.975Z,11.46
2019-03-09T23:54:56.555Z,11.39
2019-03-09T23:57:27.293Z,11.15
2019-03-09T23:59:57.152Z,11.26
